createdAt,value
2018-02-13T00:00:46.571Z,0.66
2018-02-13T00:01:46.541Z,0.67
2018-02-13T00:02:46.514Z,0.74
2018-02-13T00:03:46.482Z,0.56
2018-02-13T00:04:46.455Z,0.73
2018-02-13T00:05:46.424Z,0.77
2018-02-13T00:06:46.393Z,0.67
2018-02-13T00:07:46.365Z,0.74
2018-02-13T00:08:46.349Z,0.70
2018-02-13T00:09:46.345Z,0.67
2018-02-13T00:10:46.282Z,0.59
2018-02-13T00:11:46.259Z,0.64
2018-02-13T00:12:46.228Z,0.70
2018-02-13T00:13:46.192Z,0.59
2018-02-13T00:14:46.160Z,0.68
2018-02-13T00:15:46.131Z,0.63
2018-02-13T00:16:46.105Z,0.66
2018-02-13T00:17:46.074Z,0.64
2018-02-13T00:18:46.047Z,0.61
2018-02-13T00:19:46.055Z,0.61
2018-02-13T00:20:45.986Z,0.61
2018-02-13T00:21:45.959Z,0.64
2018-02-13T00:22:45.928Z,0.67
2018-02-13T00:23:45.899Z,0.66
2018-02-13T00:24:45.876Z,0.59
2018-02-13T00:25:45.840Z,0.52
2018-02-13T00:26:45.813Z,0.58
2018-02-13T00:27:45.786Z,0.49
2018-02-13T00:28:45.752Z,0.58
2018-02-13T00:29:45.728Z,0.55
2018-02-13T00:30:45.695Z,0.44
2018-02-13T00:31:45.678Z,0.44
2018-02-13T00:32:45.640Z,0.44
2018-02-13T00:33:45.656Z,0.52
2018-02-13T00:34:45.579Z,0.49
2018-02-13T00:35:45.595Z,0.52
2018-02-13T00:36:45.523Z,0.56
2018-02-13T00:37:45.578Z,0.45
2018-02-13T00:38:45.487Z,0.44
2018-02-13T00:39:45.471Z,0.49
2018-02-13T00:40:45.405Z,0.51
2018-02-13T00:41:45.690Z,0.45
2018-02-13T00:42:45.346Z,0.52
2018-02-13T00:43:45.315Z,0.63
2018-02-13T00:44:45.294Z,0.58
2018-02-13T00:45:45.258Z,0.59
2018-02-13T00:46:45.232Z,0.61
2018-02-13T00:47:45.199Z,0.52
2018-02-13T00:48:45.172Z,0.63
2018-02-13T00:49:45.140Z,0.45
2018-02-13T00:50:45.116Z,0.45
2018-02-13T00:51:45.084Z,0.47
2018-02-13T00:52:45.057Z,0.45
2018-02-13T00:53:45.027Z,0.40
2018-02-13T00:54:44.996Z,0.47
2018-02-13T00:55:44.967Z,0.39
2018-02-13T00:56:44.938Z,0.45
2018-02-13T00:57:44.907Z,0.47
2018-02-13T00:58:44.878Z,0.45
2018-02-13T00:59:44.850Z,0.44
2018-02-13T01:00:44.821Z,0.42
2018-02-13T01:01:44.791Z,0.42
2018-02-13T01:02:44.775Z,0.40
2018-02-13T01:03:44.735Z,0.34
2018-02-13T01:04:44.704Z,0.40
2018-02-13T01:05:44.675Z,0.37
2018-02-13T01:06:44.650Z,0.44
2018-02-13T01:07:44.620Z,0.39
2018-02-13T01:08:44.589Z,0.40
2018-02-13T01:09:44.565Z,0.49
2018-02-13T01:10:44.544Z,0.45
2018-02-13T01:11:44.504Z,0.42
2018-02-13T01:12:44.469Z,0.44
2018-02-13T01:13:44.444Z,0.47
2018-02-13T01:14:44.410Z,0.49
2018-02-13T01:15:44.386Z,0.40
2018-02-13T01:16:44.352Z,0.48
2018-02-13T01:17:44.327Z,0.45
2018-02-13T01:18:44.294Z,0.48
2018-02-13T01:19:44.270Z,0.44
2018-02-13T01:20:44.236Z,0.42
2018-02-13T01:21:44.209Z,0.44
2018-02-13T01:22:44.178Z,0.44
2018-02-13T01:23:44.156Z,0.42
2018-02-13T01:24:44.125Z,0.47
2018-02-13T01:25:44.091Z,0.40
2018-02-13T01:26:44.064Z,0.42
2018-02-13T01:27:44.032Z,0.39
2018-02-13T01:28:44.011Z,0.47
2018-02-13T01:29:43.975Z,0.48
2018-02-13T01:30:43.946Z,0.45
2018-02-13T01:31:43.915Z,0.47
2018-02-13T01:32:43.887Z,0.49
2018-02-13T01:33:43.857Z,0.51
2018-02-13T01:34:43.828Z,0.58
2018-02-13T01:35:43.799Z,0.47
2018-02-13T01:36:43.771Z,0.58
2018-02-13T01:37:43.738Z,0.58
2018-02-13T01:38:43.714Z,0.52
2018-02-13T01:39:43.680Z,0.61
2018-02-13T01:40:43.653Z,0.56
2018-02-13T01:41:43.624Z,0.58
2018-02-13T01:42:43.859Z,0.59
2018-02-13T01:43:43.565Z,0.52
2018-02-13T01:44:43.538Z,0.55
2018-02-13T01:45:43.506Z,0.56
2018-02-13T01:46:43.480Z,0.44
2018-02-13T01:47:43.448Z,0.51
2018-02-13T01:48:43.418Z,0.47
2018-02-13T01:49:43.389Z,0.40
2018-02-13T01:50:43.368Z,0.34
2018-02-13T01:51:43.330Z,0.39
2018-02-13T01:52:43.308Z,0.36
2018-02-13T01:53:43.273Z,0.27
2018-02-13T01:54:43.242Z,0.39
2018-02-13T01:55:43.213Z,0.39
2018-02-13T01:56:43.186Z,0.40
2018-02-13T01:57:43.154Z,0.47
2018-02-13T01:58:43.129Z,0.39
2018-02-13T01:59:43.102Z,0.27
2018-02-13T02:00:43.067Z,0.31
2018-02-13T02:01:43.042Z,0.40
2018-02-13T02:02:43.010Z,0.39
2018-02-13T02:03:42.980Z,0.37
2018-02-13T02:04:42.979Z,0.36
2018-02-13T02:05:42.923Z,0.40
2018-02-13T02:06:42.891Z,0.42
2018-02-13T02:07:42.863Z,0.34
2018-02-13T02:08:42.834Z,0.39
2018-02-13T02:09:42.806Z,0.42
2018-02-13T02:10:42.775Z,0.31
2018-02-13T02:11:42.747Z,0.33
2018-02-13T02:12:42.716Z,0.33
2018-02-13T02:13:42.689Z,0.37
2018-02-13T02:14:42.658Z,0.37
2018-02-13T02:15:42.631Z,0.34
2018-02-13T02:16:42.603Z,0.33
2018-02-13T02:17:42.572Z,0.36
2018-02-13T02:18:42.540Z,0.37
2018-02-13T02:19:42.519Z,0.37
2018-02-13T02:20:42.482Z,0.29
2018-02-13T02:21:42.455Z,0.33
2018-02-13T02:22:42.424Z,0.37
2018-02-13T02:23:42.401Z,0.30
2018-02-13T02:24:42.366Z,0.33
2018-02-13T02:25:42.336Z,0.31
2018-02-13T02:26:42.307Z,0.30
2018-02-13T02:27:42.277Z,0.26
2018-02-13T02:28:42.248Z,0.23
2018-02-13T02:29:42.218Z,0.27
2018-02-13T02:30:42.212Z,0.24
2018-02-13T02:31:42.161Z,0.29
2018-02-13T02:32:42.162Z,0.18
2018-02-13T02:33:42.102Z,0.26
2018-02-13T02:34:42.079Z,0.30
2018-02-13T02:35:42.044Z,0.33
2018-02-13T02:36:42.013Z,0.33
2018-02-13T02:37:41.983Z,0.40
2018-02-13T02:38:41.958Z,0.30
2018-02-13T02:39:41.934Z,0.29
2018-02-13T02:40:41.899Z,0.26
2018-02-13T02:41:41.868Z,0.27
2018-02-13T02:42:41.838Z,0.26
2018-02-13T02:43:42.221Z,0.24
2018-02-13T02:44:41.782Z,0.33
2018-02-13T02:45:41.777Z,0.23
2018-02-13T02:46:41.726Z,0.19
2018-02-13T02:47:41.692Z,0.26
2018-02-13T02:48:41.665Z,0.27
2018-02-13T02:49:41.637Z,0.30
2018-02-13T02:50:41.604Z,0.39
2018-02-13T02:51:41.576Z,0.36
2018-02-13T02:52:41.549Z,0.34
2018-02-13T02:53:41.516Z,0.39
2018-02-13T02:54:41.506Z,0.42
2018-02-13T02:55:41.455Z,0.36
2018-02-13T02:56:41.430Z,0.31
2018-02-13T02:57:41.397Z,0.39
2018-02-13T02:58:41.370Z,0.34
2018-02-13T02:59:41.340Z,0.31
2018-02-13T03:00:41.312Z,0.36
2018-02-13T03:01:41.310Z,0.31
2018-02-13T03:02:41.252Z,0.36
2018-02-13T03:03:41.221Z,0.36
2018-02-13T03:04:41.198Z,0.33
2018-02-13T03:05:41.164Z,0.30
2018-02-13T03:06:41.135Z,0.34
2018-02-13T03:07:41.103Z,0.34
2018-02-13T03:08:41.079Z,0.36
2018-02-13T03:09:41.046Z,0.33
2018-02-13T03:10:41.020Z,0.27
2018-02-13T03:11:40.987Z,0.29
2018-02-13T03:12:40.958Z,0.39
2018-02-13T03:13:40.927Z,0.40
2018-02-13T03:14:40.905Z,0.36
2018-02-13T03:15:40.871Z,0.31
2018-02-13T03:16:40.841Z,0.45
2018-02-13T03:17:40.811Z,0.29
2018-02-13T03:18:40.781Z,0.40
2018-02-13T03:19:40.752Z,0.39
2018-02-13T03:20:40.722Z,0.45
2018-02-13T03:21:40.693Z,0.45
2018-02-13T03:22:40.668Z,0.45
2018-02-13T03:23:40.655Z,0.47
2018-02-13T03:24:40.607Z,0.56
2018-02-13T03:25:40.575Z,0.55
2018-02-13T03:26:40.546Z,0.47
2018-02-13T03:27:40.549Z,0.37
2018-02-13T03:28:40.488Z,0.48
2018-02-13T03:29:40.483Z,0.44
2018-02-13T03:30:40.431Z,0.52
2018-02-13T03:31:40.400Z,0.45
2018-02-13T03:32:40.371Z,0.58
2018-02-13T03:33:40.352Z,0.39
2018-02-13T03:34:40.311Z,0.51
2018-02-13T03:35:40.282Z,0.55
2018-02-13T03:36:40.256Z,0.52
2018-02-13T03:37:40.222Z,0.58
2018-02-13T03:38:40.198Z,0.58
2018-02-13T03:39:40.169Z,0.45
2018-02-13T03:40:40.138Z,0.58
2018-02-13T03:41:40.108Z,0.58
2018-02-13T03:42:40.079Z,0.56
2018-02-13T03:43:40.060Z,0.55
2018-02-13T03:44:40.545Z,0.58
2018-02-13T03:45:39.990Z,0.52
2018-02-13T03:46:39.964Z,0.58
2018-02-13T03:47:39.933Z,0.47
2018-02-13T03:48:39.908Z,0.51
2018-02-13T03:49:39.874Z,0.55
2018-02-13T03:50:39.845Z,0.55
2018-02-13T03:51:39.816Z,0.59
2018-02-13T03:52:39.787Z,0.56
2018-02-13T03:53:39.756Z,0.58
2018-02-13T03:54:39.727Z,0.55
2018-02-13T03:55:39.700Z,0.55
2018-02-13T03:56:39.671Z,0.61
2018-02-13T03:57:39.645Z,0.63
2018-02-13T03:58:39.611Z,0.59
2018-02-13T03:59:39.584Z,0.58
2018-02-13T04:00:39.554Z,0.52
2018-02-13T04:01:39.524Z,0.55
2018-02-13T04:02:39.498Z,0.44
2018-02-13T04:03:39.465Z,0.44
2018-02-13T04:04:39.437Z,0.47
2018-02-13T04:05:39.410Z,0.45
2018-02-13T04:06:39.380Z,0.44
2018-02-13T04:07:39.350Z,0.51
2018-02-13T04:08:39.321Z,0.45
2018-02-13T04:09:39.294Z,0.52
2018-02-13T04:10:39.262Z,0.63
2018-02-13T04:11:39.232Z,0.56
2018-02-13T04:12:39.212Z,0.52
2018-02-13T04:13:39.174Z,0.45
2018-02-13T04:14:39.146Z,0.44
2018-02-13T04:15:39.117Z,0.51
2018-02-13T04:16:39.088Z,0.42
2018-02-13T04:17:39.059Z,0.48
2018-02-13T04:18:39.028Z,0.48
2018-02-13T04:19:39.002Z,0.45
2018-02-13T04:20:38.971Z,0.45
2018-02-13T04:21:38.941Z,0.45
2018-02-13T04:22:38.912Z,0.44
2018-02-13T04:23:38.882Z,0.49
2018-02-13T04:24:38.857Z,0.48
2018-02-13T04:25:38.823Z,0.45
2018-02-13T04:26:38.795Z,0.44
2018-02-13T04:27:38.768Z,0.47
2018-02-13T04:28:38.738Z,0.40
2018-02-13T04:29:38.707Z,0.45
2018-02-13T04:30:38.678Z,0.40
2018-02-13T04:31:38.650Z,0.49
2018-02-13T04:32:38.620Z,0.42
2018-02-13T04:33:38.588Z,0.34
2018-02-13T04:34:38.561Z,0.33
2018-02-13T04:35:38.532Z,0.42
2018-02-13T04:36:38.501Z,0.29
2018-02-13T04:37:38.476Z,0.39
2018-02-13T04:38:38.443Z,0.30
2018-02-13T04:39:38.416Z,0.27
2018-02-13T04:40:38.386Z,0.39
2018-02-13T04:41:38.355Z,0.48
2018-02-13T04:42:38.328Z,0.36
2018-02-13T04:43:38.299Z,0.40
2018-02-13T04:44:38.266Z,0.44
2018-02-13T04:45:39.019Z,0.39
2018-02-13T04:46:38.208Z,0.33
2018-02-13T04:47:38.181Z,0.44
2018-02-13T04:48:38.153Z,0.34
2018-02-13T04:49:38.122Z,0.37
2018-02-13T04:50:38.090Z,0.36
2018-02-13T04:51:38.062Z,0.39
2018-02-13T04:52:38.031Z,0.42
2018-02-13T04:53:38.004Z,0.34
2018-02-13T04:54:37.974Z,0.39
2018-02-13T04:55:37.944Z,0.39
2018-02-13T04:56:37.915Z,0.39
2018-02-13T04:57:37.887Z,0.34
2018-02-13T04:58:37.856Z,0.45
2018-02-13T04:59:37.828Z,0.45
2018-02-13T05:00:37.808Z,0.40
2018-02-13T05:01:37.768Z,0.30
2018-02-13T05:02:37.753Z,0.33
2018-02-13T05:03:37.711Z,0.30
2018-02-13T05:04:37.683Z,0.33
2018-02-13T05:05:37.650Z,0.26
2018-02-13T05:06:37.627Z,0.33
2018-02-13T05:07:37.600Z,0.40
2018-02-13T05:08:37.571Z,0.33
2018-02-13T05:09:37.541Z,0.33
2018-02-13T05:10:37.503Z,0.36
2018-02-13T05:11:37.476Z,0.34
2018-02-13T05:12:37.448Z,0.39
2018-02-13T05:13:37.417Z,0.31
2018-02-13T05:14:37.386Z,0.27
2018-02-13T05:15:37.410Z,0.29
2018-02-13T05:16:37.328Z,0.24
2018-02-13T05:17:37.302Z,0.33
2018-02-13T05:18:37.271Z,0.27
2018-02-13T05:19:37.272Z,0.24
2018-02-13T05:20:37.210Z,0.24
2018-02-13T05:21:37.182Z,0.19
2018-02-13T05:22:37.169Z,0.20
2018-02-13T05:23:37.127Z,0.20
2018-02-13T05:24:37.092Z,0.24
2018-02-13T05:25:37.064Z,0.23
2018-02-13T05:26:37.033Z,0.24
2018-02-13T05:27:37.006Z,0.16
2018-02-13T05:28:36.974Z,0.19
2018-02-13T05:29:36.945Z,0.19
2018-02-13T05:30:36.916Z,0.20
2018-02-13T05:31:36.891Z,0.26
2018-02-13T05:32:36.858Z,0.26
2018-02-13T05:33:36.828Z,0.23
2018-02-13T05:34:36.799Z,0.20
2018-02-13T05:35:36.770Z,0.27
2018-02-13T05:36:36.740Z,0.30
2018-02-13T05:37:36.710Z,0.31
2018-02-13T05:38:36.688Z,0.37
2018-02-13T05:39:36.653Z,0.33
2018-02-13T05:40:36.622Z,0.33
2018-02-13T05:41:36.595Z,0.37
2018-02-13T05:42:36.566Z,0.34
2018-02-13T05:43:36.553Z,0.30
2018-02-13T05:44:36.505Z,0.33
2018-02-13T05:45:36.477Z,0.39
2018-02-13T05:46:36.464Z,0.34
2018-02-13T05:47:36.417Z,0.33
2018-02-13T05:48:36.391Z,0.30
2018-02-13T05:49:36.359Z,0.30
2018-02-13T05:50:36.329Z,0.27
2018-02-13T05:51:36.300Z,0.24
2018-02-13T05:52:36.271Z,0.23
2018-02-13T05:53:36.241Z,0.20
2018-02-13T05:54:36.224Z,0.27
2018-02-13T05:55:36.184Z,0.20
2018-02-13T05:56:36.154Z,0.23
2018-02-13T05:57:36.124Z,0.24
2018-02-13T05:58:36.096Z,0.23
2018-02-13T05:59:36.066Z,0.13
2018-02-13T06:00:36.110Z,0.05
2018-02-13T06:01:36.006Z,0.20
2018-02-13T06:02:35.977Z,0.13
2018-02-13T06:03:35.997Z,0.16
2018-02-13T06:04:35.921Z,0.05
2018-02-13T06:05:35.907Z,0.15
2018-02-13T06:06:35.868Z,0.20
2018-02-13T06:07:35.830Z,0.20
2018-02-13T06:08:35.803Z,0.26
2018-02-13T06:09:35.775Z,0.19
2018-02-13T06:10:35.744Z,0.18
2018-02-13T06:11:35.715Z,0.20
2018-02-13T06:12:35.686Z,0.24
2018-02-13T06:13:35.654Z,0.20
2018-02-13T06:14:35.631Z,0.30
2018-02-13T06:15:35.597Z,0.33
2018-02-13T06:16:35.566Z,0.27
2018-02-13T06:17:35.537Z,0.24
2018-02-13T06:18:35.505Z,0.27
2018-02-13T06:19:35.475Z,0.33
2018-02-13T06:20:35.449Z,0.24
2018-02-13T06:21:35.416Z,0.27
2018-02-13T06:22:35.390Z,0.27
2018-02-13T06:23:35.360Z,0.27
2018-02-13T06:24:35.331Z,0.31
2018-02-13T06:25:35.301Z,0.24
2018-02-13T06:26:35.270Z,0.29
2018-02-13T06:27:35.241Z,0.31
2018-02-13T06:28:35.213Z,0.31
2018-02-13T06:29:35.181Z,0.33
2018-02-13T06:30:35.154Z,0.31
2018-02-13T06:31:35.126Z,0.34
2018-02-13T06:32:35.095Z,0.34
2018-02-13T06:33:35.064Z,0.37
2018-02-13T06:34:35.034Z,0.31
2018-02-13T06:35:35.004Z,0.30
2018-02-13T06:36:34.976Z,0.34
2018-02-13T06:37:34.946Z,0.31
2018-02-13T06:38:34.923Z,0.37
2018-02-13T06:39:34.888Z,0.39
2018-02-13T06:40:34.861Z,0.33
2018-02-13T06:41:34.828Z,0.34
2018-02-13T06:42:34.804Z,0.20
2018-02-13T06:43:34.770Z,0.42
2018-02-13T06:44:34.740Z,0.39
2018-02-13T06:45:34.716Z,0.34
2018-02-13T06:46:34.682Z,0.39
2018-02-13T06:47:34.674Z,0.20
2018-02-13T06:48:34.624Z,0.24
2018-02-13T06:49:34.592Z,0.31
2018-02-13T06:50:34.564Z,0.20
2018-02-13T06:51:34.534Z,0.26
2018-02-13T06:52:34.505Z,0.18
2018-02-13T06:53:34.476Z,0.19
2018-02-13T06:54:34.447Z,0.12
2018-02-13T06:55:34.415Z,0.06
2018-02-13T06:56:34.388Z,0.11
2018-02-13T06:57:34.359Z,0.11
2018-02-13T06:58:34.327Z,0.13
2018-02-13T06:59:34.297Z,0.13
2018-02-13T07:00:34.268Z,0.23
2018-02-13T07:01:34.237Z,0.18
2018-02-13T07:02:34.212Z,0.24
2018-02-13T07:03:34.180Z,0.24
2018-02-13T07:04:34.150Z,0.18
2018-02-13T07:05:34.121Z,0.24
2018-02-13T07:06:34.093Z,0.23
2018-02-13T07:07:34.064Z,0.31
2018-02-13T07:08:34.036Z,0.29
2018-02-13T07:09:34.000Z,0.31
2018-02-13T07:10:34.026Z,0.29
2018-02-13T07:11:33.943Z,0.37
2018-02-13T07:12:33.913Z,0.36
2018-02-13T07:13:33.884Z,0.30
2018-02-13T07:14:33.855Z,0.37
2018-02-13T07:15:33.852Z,0.34
2018-02-13T07:16:33.860Z,0.33
2018-02-13T07:17:33.766Z,0.36
2018-02-13T07:18:33.736Z,0.34
2018-02-13T07:19:33.708Z,0.36
2018-02-13T07:20:33.679Z,0.33
2018-02-13T07:21:33.651Z,0.37
2018-02-13T07:22:33.622Z,0.44
2018-02-13T07:23:33.594Z,0.40
2018-02-13T07:24:33.560Z,0.33
2018-02-13T07:25:33.530Z,0.42
2018-02-13T07:26:33.499Z,0.33
2018-02-13T07:27:33.472Z,0.36
2018-02-13T07:28:33.444Z,0.45
2018-02-13T07:29:33.413Z,0.37
2018-02-13T07:30:33.384Z,0.33
2018-02-13T07:31:33.354Z,0.48
2018-02-13T07:32:33.328Z,0.44
2018-02-13T07:33:33.294Z,0.47
2018-02-13T07:34:33.266Z,0.47
2018-02-13T07:35:33.237Z,0.42
2018-02-13T07:36:33.209Z,0.37
2018-02-13T07:37:33.176Z,0.48
2018-02-13T07:38:33.151Z,0.31
2018-02-13T07:39:33.120Z,0.45
2018-02-13T07:40:33.090Z,0.37
2018-02-13T07:41:33.059Z,0.37
2018-02-13T07:42:33.055Z,0.33
2018-02-13T07:43:33.043Z,0.44
2018-02-13T07:44:32.993Z,0.42
2018-02-13T07:45:32.943Z,0.44
2018-02-13T07:46:33.053Z,0.42
2018-02-13T07:47:32.884Z,0.42
2018-02-13T07:48:32.936Z,0.47
2018-02-13T07:49:32.836Z,0.42
2018-02-13T07:50:32.795Z,0.48
2018-02-13T07:51:32.769Z,0.48
2018-02-13T07:52:32.782Z,0.51
2018-02-13T07:53:32.707Z,0.47
2018-02-13T07:54:32.692Z,0.58
2018-02-13T07:55:32.647Z,0.59
2018-02-13T07:56:32.621Z,0.61
2018-02-13T07:57:32.592Z,0.64
2018-02-13T07:58:32.584Z,0.64
2018-02-13T07:59:32.539Z,0.67
2018-02-13T08:00:32.504Z,0.71
2018-02-13T08:01:32.480Z,0.64
2018-02-13T08:02:32.442Z,0.67
2018-02-13T08:03:32.412Z,0.78
2018-02-13T08:04:32.385Z,0.81
2018-02-13T08:05:32.374Z,0.74
2018-02-13T08:06:32.325Z,0.77
2018-02-13T08:07:32.299Z,0.74
2018-02-13T08:08:32.266Z,0.77
2018-02-13T08:09:32.301Z,0.81
2018-02-13T08:10:32.208Z,0.78
2018-02-13T08:11:32.231Z,0.78
2018-02-13T08:12:32.149Z,0.77
2018-02-13T08:13:32.132Z,0.86
2018-02-13T08:14:32.094Z,0.84
2018-02-13T08:15:32.098Z,0.91
2018-02-13T08:16:32.061Z,0.84
2018-02-13T08:17:32.026Z,0.89
2018-02-13T08:18:31.975Z,0.94
2018-02-13T08:19:31.949Z,0.89
2018-02-13T08:20:32.923Z,0.91
2018-02-13T08:21:31.888Z,0.88
2018-02-13T08:22:31.859Z,0.86
2018-02-13T08:23:31.829Z,0.99
2018-02-13T08:24:31.799Z,1.02
2018-02-13T08:25:31.808Z,1.04
2018-02-13T08:26:31.740Z,1.06
2018-02-13T08:27:31.713Z,1.13
2018-02-13T08:28:31.685Z,1.20
2018-02-13T08:29:31.654Z,1.12
2018-02-13T08:30:31.625Z,1.14
2018-02-13T08:31:31.599Z,1.21
2018-02-13T08:32:31.568Z,1.20
2018-02-13T08:33:31.539Z,1.24
2018-02-13T08:34:31.510Z,1.12
2018-02-13T08:35:31.481Z,1.20
2018-02-13T08:36:31.450Z,1.30
2018-02-13T08:37:31.422Z,1.32
2018-02-13T08:38:31.404Z,1.24
2018-02-13T08:39:31.365Z,1.36
2018-02-13T08:40:31.343Z,1.32
2018-02-13T08:41:31.306Z,1.32
2018-02-13T08:42:31.277Z,1.27
2018-02-13T08:43:31.250Z,1.31
2018-02-13T08:44:31.230Z,1.36
2018-02-13T08:45:31.190Z,1.32
2018-02-13T08:46:31.166Z,1.43
2018-02-13T08:47:31.131Z,1.46
2018-02-13T08:48:31.105Z,1.52
2018-02-13T08:49:31.087Z,1.57
2018-02-13T08:50:31.048Z,1.60
2018-02-13T08:51:31.019Z,1.58
2018-02-13T08:52:30.993Z,1.56
2018-02-13T08:53:30.960Z,1.61
2018-02-13T08:54:30.932Z,1.63
2018-02-13T08:55:30.902Z,1.56
2018-02-13T08:56:30.875Z,1.68
2018-02-13T08:57:30.856Z,1.60
2018-02-13T08:58:30.816Z,1.61
2018-02-13T08:59:30.792Z,1.63
2018-02-13T09:00:30.762Z,1.66
2018-02-13T09:01:30.769Z,1.68
2018-02-13T09:02:30.763Z,1.76
2018-02-13T09:03:30.678Z,1.81
2018-02-13T09:04:30.750Z,1.68
2018-02-13T09:05:30.619Z,1.84
2018-02-13T09:06:30.592Z,1.85
2018-02-13T09:07:30.559Z,1.86
2018-02-13T09:08:30.530Z,1.85
2018-02-13T09:09:30.504Z,1.86
2018-02-13T09:10:30.475Z,1.89
2018-02-13T09:11:30.444Z,2.03
2018-02-13T09:12:30.417Z,1.97
2018-02-13T09:13:30.395Z,2.00
2018-02-13T09:14:30.547Z,1.95
2018-02-13T09:15:30.338Z,2.04
2018-02-13T09:16:30.303Z,2.05
2018-02-13T09:17:30.273Z,2.05
2018-02-13T09:18:30.276Z,2.19
2018-02-13T09:19:30.312Z,2.18
2018-02-13T09:20:30.196Z,2.22
2018-02-13T09:21:30.207Z,2.19
2018-02-13T09:22:30.139Z,2.25
2018-02-13T09:23:30.172Z,2.26
2018-02-13T09:24:30.076Z,2.32
2018-02-13T09:25:30.059Z,2.28
2018-02-13T09:26:30.075Z,2.37
2018-02-13T09:27:29.992Z,2.43
2018-02-13T09:28:31.917Z,2.41
2018-02-13T09:29:29.996Z,2.40
2018-02-13T09:30:29.907Z,2.47
2018-02-13T09:31:29.948Z,2.47
2018-02-13T09:32:29.893Z,2.52
2018-02-13T09:33:29.824Z,2.57
2018-02-13T09:34:29.860Z,2.58
2018-02-13T09:35:29.861Z,2.54
2018-02-13T09:36:29.748Z,2.57
2018-02-13T09:37:29.706Z,2.54
2018-02-13T09:38:29.741Z,2.52
2018-02-13T09:39:29.650Z,2.64
2018-02-13T09:40:29.684Z,2.65
2018-02-13T09:41:29.594Z,2.64
2018-02-13T09:42:29.568Z,2.68
2018-02-13T09:43:29.602Z,2.65
2018-02-13T09:44:29.826Z,2.76
2018-02-13T09:45:29.554Z,2.73
2018-02-13T09:46:29.452Z,2.76
2018-02-13T09:47:29.511Z,2.72
2018-02-13T09:48:29.396Z,2.80
2018-02-13T09:49:29.409Z,2.80
2018-02-13T09:50:29.414Z,2.83
2018-02-13T09:51:29.387Z,2.94
2018-02-13T09:52:29.290Z,2.91
2018-02-13T09:53:29.462Z,2.88
2018-02-13T09:54:29.235Z,3.00
2018-02-13T09:55:29.274Z,3.00
2018-02-13T09:56:29.469Z,3.13
2018-02-13T09:57:29.494Z,3.15
2018-02-13T09:58:29.469Z,3.11
2018-02-13T09:59:29.180Z,3.12
2018-02-13T10:00:29.060Z,3.09
2018-02-13T10:01:29.061Z,3.11
2018-02-13T10:02:29.977Z,3.22
2018-02-13T10:03:29.727Z,3.19
2018-02-13T10:04:28.950Z,3.22
2018-02-13T10:05:31.870Z,3.27
2018-02-13T10:06:30.010Z,3.21
2018-02-13T10:07:29.407Z,3.27
2018-02-13T10:08:29.296Z,3.31
2018-02-13T10:09:28.822Z,3.29
2018-02-13T10:11:32.769Z,3.37
2018-02-13T10:12:28.854Z,3.40
2018-02-13T10:13:29.143Z,3.41
2018-02-13T10:14:30.056Z,3.50
2018-02-13T10:15:29.209Z,3.45
2018-02-13T10:16:28.768Z,3.56
2018-02-13T10:17:28.692Z,3.56
2018-02-13T10:18:28.570Z,3.50
2018-02-13T10:19:29.027Z,3.56
2018-02-13T10:20:29.506Z,3.64
2018-02-13T10:21:28.664Z,3.55
2018-02-13T10:22:28.452Z,3.66
2018-02-13T10:23:28.422Z,3.68
2018-02-13T10:24:28.395Z,3.61
2018-02-13T10:25:28.369Z,3.73
2018-02-13T10:26:28.340Z,3.78
2018-02-13T10:27:28.310Z,3.76
2018-02-13T10:28:28.615Z,3.86
2018-02-13T10:29:28.280Z,3.89
2018-02-13T10:31:29.917Z,3.91
2018-02-13T10:32:28.176Z,3.92
2018-02-13T10:33:28.158Z,3.89
2018-02-13T10:34:28.125Z,3.95
2018-02-13T10:35:28.128Z,4.00
2018-02-13T10:36:28.294Z,4.10
2018-02-13T10:37:29.036Z,4.16
2018-02-13T10:38:28.302Z,4.07
2018-02-13T10:39:28.191Z,4.10
2018-02-13T10:40:27.956Z,4.14
2018-02-13T10:41:27.932Z,4.13
2018-02-13T10:42:27.904Z,4.20
2018-02-13T10:43:28.071Z,4.21
2018-02-13T10:44:28.460Z,4.24
2018-02-13T10:45:28.110Z,4.22
2018-02-13T10:46:28.315Z,4.25
2018-02-13T10:47:27.804Z,4.18
2018-02-13T10:48:27.835Z,4.30
2018-02-13T10:49:27.717Z,4.32
2018-02-13T10:50:27.824Z,4.32
2018-02-13T10:51:27.661Z,4.30
2018-02-13T10:52:27.689Z,4.43
2018-02-13T10:53:27.646Z,4.50
2018-02-13T10:54:27.664Z,4.56
2018-02-13T10:55:27.557Z,4.53
2018-02-13T10:56:27.538Z,4.56
2018-02-13T10:57:27.548Z,4.64
2018-02-13T10:58:27.566Z,4.56
2018-02-13T10:59:27.467Z,4.53
2018-02-13T11:00:27.444Z,4.53
2018-02-13T11:01:27.544Z,4.66
2018-02-13T11:02:27.376Z,4.66
2018-02-13T11:03:27.344Z,4.64
2018-02-13T11:04:27.357Z,4.68
2018-02-13T11:05:27.453Z,4.66
2018-02-13T11:06:27.259Z,4.79
2018-02-13T11:07:27.237Z,4.70
2018-02-13T11:08:27.262Z,4.71
2018-02-13T11:09:27.174Z,4.75
2018-02-13T11:10:27.151Z,4.75
2018-02-13T11:11:27.123Z,4.74
2018-02-13T11:12:27.097Z,4.79
2018-02-13T11:13:27.976Z,4.87
2018-02-13T11:14:27.046Z,4.78
2018-02-13T11:15:27.471Z,4.84
2018-02-13T11:16:29.202Z,4.86
2018-02-13T11:17:28.122Z,4.83
2018-02-13T11:18:28.846Z,4.86
2018-02-13T11:19:26.918Z,4.86
2018-02-13T11:20:26.887Z,4.83
2018-02-13T11:22:27.427Z,4.98
2018-02-13T11:23:27.587Z,4.97
2018-02-13T11:24:28.568Z,4.97
2018-02-13T11:25:26.758Z,5.01
2018-02-13T11:26:26.731Z,5.02
2018-02-13T11:27:29.456Z,5.12
2018-02-13T11:30:27.554Z,5.28
2018-02-13T11:32:26.621Z,5.18
2018-02-13T11:33:27.690Z,5.34
2018-02-13T11:34:27.774Z,5.41
2018-02-13T11:35:27.823Z,5.36
2018-02-13T11:36:27.932Z,5.34
2018-02-13T11:37:28.184Z,5.43
2018-02-13T11:38:26.468Z,5.40
2018-02-13T11:39:26.853Z,5.38
2018-02-13T11:40:26.980Z,5.31
2018-02-13T11:41:27.182Z,5.40
2018-02-13T11:42:27.900Z,5.41
2018-02-13T11:43:27.522Z,5.38
2018-02-13T11:44:26.326Z,5.40
2018-02-13T11:45:26.332Z,5.36
2018-02-13T11:46:26.997Z,5.37
2018-02-13T11:47:27.734Z,5.43
2018-02-13T11:48:27.960Z,5.46
2018-02-13T11:49:27.534Z,5.49
2018-02-13T11:50:26.108Z,5.51
2018-02-13T11:51:26.085Z,5.46
2018-02-13T11:52:26.058Z,5.52
2018-02-13T11:53:26.033Z,5.46
2018-02-13T11:54:26.006Z,5.44
2018-02-13T11:55:25.978Z,5.56
2018-02-13T11:56:26.005Z,5.64
2018-02-13T11:57:25.951Z,5.62
2018-02-13T11:58:25.904Z,5.58
2018-02-13T11:59:25.883Z,5.54
2018-02-13T12:00:25.851Z,5.52
2018-02-13T12:01:25.854Z,5.64
2018-02-13T12:02:26.081Z,5.61
2018-02-13T12:03:26.226Z,5.65
2018-02-13T12:04:27.222Z,5.67
2018-02-13T12:05:26.979Z,5.80
2018-02-13T12:07:25.702Z,5.84
2018-02-13T12:08:25.650Z,5.83
2018-02-13T12:09:28.601Z,5.83
2018-02-13T12:10:26.479Z,5.88
2018-02-13T12:11:26.631Z,5.88
2018-02-13T12:12:26.389Z,5.88
2018-02-13T12:13:27.972Z,5.90
2018-02-13T12:14:25.671Z,5.91
2018-02-13T12:15:26.659Z,5.98
2018-02-13T12:16:25.775Z,5.95
2018-02-13T12:17:25.658Z,6.06
2018-02-13T12:18:26.305Z,5.99
2018-02-13T12:19:26.036Z,5.98
2018-02-13T12:20:25.761Z,5.98
2018-02-13T12:21:26.454Z,5.98
2018-02-13T12:22:25.605Z,5.97
2018-02-13T12:23:25.737Z,5.99
2018-02-13T12:24:25.582Z,6.02
2018-02-13T12:25:25.810Z,6.02
2018-02-13T12:26:26.147Z,6.01
2018-02-13T12:27:25.277Z,5.98
2018-02-13T12:28:25.671Z,5.99
2018-02-13T12:29:25.850Z,6.02
2018-02-13T12:30:26.549Z,6.07
2018-02-13T12:31:25.353Z,6.12
2018-02-13T12:32:25.250Z,6.16
2018-02-13T12:33:25.911Z,6.17
2018-02-13T12:34:25.445Z,6.16
2018-02-13T12:35:25.489Z,6.20
2018-02-13T12:36:25.180Z,6.10
2018-02-13T12:37:26.149Z,6.25
2018-02-13T12:38:25.975Z,6.20
2018-02-13T12:39:25.098Z,6.29
2018-02-13T12:40:25.359Z,6.25
2018-02-13T12:41:24.986Z,6.26
2018-02-13T12:42:25.056Z,6.28
2018-02-13T12:43:24.906Z,6.28
2018-02-13T12:44:24.929Z,6.34
2018-02-13T12:45:24.876Z,6.34
2018-02-13T12:46:24.937Z,6.44
2018-02-13T12:47:25.294Z,6.38
2018-02-13T12:48:24.801Z,6.28
2018-02-13T12:49:24.995Z,6.16
2018-02-13T12:50:24.802Z,6.19
2018-02-13T12:51:24.809Z,6.28
2018-02-13T12:52:24.786Z,6.25
2018-02-13T12:53:24.844Z,6.25
2018-02-13T12:54:24.559Z,6.26
2018-02-13T12:55:24.652Z,6.19
2018-02-13T12:56:24.663Z,6.16
2018-02-13T12:57:25.415Z,6.12
2018-02-13T12:58:24.511Z,6.17
2018-02-13T12:59:24.638Z,6.17
2018-02-13T13:00:25.081Z,6.25
2018-02-13T13:01:24.412Z,6.15
2018-02-13T13:02:24.397Z,6.12
2018-02-13T13:03:24.307Z,6.17
2018-02-13T13:04:24.259Z,6.25
2018-02-13T13:05:24.234Z,6.26
2018-02-13T13:06:24.213Z,6.31
2018-02-13T13:07:24.231Z,6.38
2018-02-13T13:08:24.167Z,6.47
2018-02-13T13:09:24.133Z,6.56
2018-02-13T13:10:24.108Z,6.59
2018-02-13T13:11:24.091Z,6.72
2018-02-13T13:12:24.063Z,6.67
2018-02-13T13:13:24.037Z,6.74
2018-02-13T13:14:24.012Z,6.72
2018-02-13T13:15:24.047Z,6.71
2018-02-13T13:16:23.963Z,6.72
2018-02-13T13:17:23.971Z,6.67
2018-02-13T13:18:23.964Z,6.49
2018-02-13T13:19:23.921Z,6.39
2018-02-13T13:20:23.899Z,6.52
2018-02-13T13:21:23.844Z,6.44
2018-02-13T13:22:23.826Z,6.56
2018-02-13T13:23:23.795Z,6.70
2018-02-13T13:24:23.771Z,6.64
2018-02-13T13:25:23.743Z,6.71